sensor_id;sensor_type;location;lat;lon;timestamp;temperature;humidity
52321;DHT22;38261;54.090;13.382;2022-08-05T00:00:05;23.50;99.90
52321;DHT22;38261;54.090;13.382;2022-08-05T00:01:28;23.50;99.90
52321;DHT22;38261;54.090;13.382;2022-08-05T00:02:57;23.60;99.90
52321;DHT22;38261;54.090;13.382;2022-08-05T00:04:19;23.60;99.90
52321;DHT22;38261;54.090;13.382;2022-08-05T00:05:41;23.60;99.90
52321;DHT22;38261;54.090;13.382;2022-08-05T00:07:24;23.60;99.90
52321;DHT22;38261;54.090;13.382;2022-08-05T00:09:06;23.60;99.90
52321;DHT22;38261;54.090;13.382;2022-08-05T00:10:34;23.50;99.90
52321;DHT22;38261;54.090;13.382;2022-08-05T00:11:56;23.50;99.90
52321;DHT22;38261;54.090;13.382;2022-08-05T00:13:20;23.50;99.90
52321;DHT22;38261;54.090;13.382;2022-08-05T00:15:00;23.50;99.90
52321;DHT22;38261;54.090;13.382;2022-08-05T00:16:45;23.40;99.90
52321;DHT22;38261;54.090;13.382;2022-08-05T00:18:14;23.40;99.90
52321;DHT22;38261;54.090;13.382;2022-08-05T00:19:43;23.40;99.90
52321;DHT22;38261;54.090;13.382;2022-08-05T00:21:23;23.30;99.90
52321;DHT22;38261;54.090;13.382;2022-08-05T00:22:51;23.30;99.90
52321;DHT22;38261;54.090;13.382;2022-08-05T00:24:20;23.30;99.90
52321;DHT22;38261;54.090;13.382;2022-08-05T00:25:45;23.30;99.90
52321;DHT22;38261;54.090;13.382;2022-08-05T00:27:08;23.30;99.90
52321;DHT22;38261;54.090;13.382;2022-08-05T00:28:49;23.30;99.90
52321;DHT22;38261;54.090;13.382;2022-08-05T00:30:12;23.30;99.90
52321;DHT22;38261;54.090;13.382;2022-08-05T00:31:34;23.30;99.90
52321;DHT22;38261;54.090;13.382;2022-08-05T00:33:16;23.30;99.90
52321;DHT22;38261;54.090;13.382;2022-08-05T00:34:58;23.30;99.90
52321;DHT22;38261;54.090;13.382;2022-08-05T00:36:28;23.30;99.90
52321;DHT22;38261;54.090;13.382;2022-08-05T00:38:10;23.30;99.90
52321;DHT22;38261;54.090;13.382;2022-08-05T00:39:35;23.30;99.90
52321;DHT22;38261;54.090;13.382;2022-08-05T00:41:29;23.30;99.90
52321;DHT22;38261;54.090;13.382;2022-08-05T00:43:11;23.30;99.90
52321;DHT22;38261;54.090;13.382;2022-08-05T00:44:36;23.20;99.90
52321;DHT22;38261;54.090;13.382;2022-08-05T00:45:58;23.20;99.90
52321;DHT22;38261;54.090;13.382;2022-08-05T00:47:20;23.10;99.90
52321;DHT22;38261;54.090;13.382;2022-08-05T00:48:43;23.10;99.90
52321;DHT22;38261;54.090;13.382;2022-08-05T00:50:12;23.10;99.90
52321;DHT22;38261;54.090;13.382;2022-08-05T00:51:34;23.10;99.90
52321;DHT22;38261;54.090;13.382;2022-08-05T00:53:16;23.00;99.90
52321;DHT22;38261;54.090;13.382;2022-08-05T00:54:59;23.00;99.90
52321;DHT22;38261;54.090;13.382;2022-08-05T00:56:21;23.00;99.90
52321;DHT22;38261;54.090;13.382;2022-08-05T00:57:44;23.00;99.90
52321;DHT22;38261;54.090;13.382;2022-08-05T00:59:20;22.90;99.90
52321;DHT22;38261;54.090;13.382;2022-08-05T01:00:42;22.90;99.90
52321;DHT22;38261;54.090;13.382;2022-08-05T01:02:05;22.90;99.90
52321;DHT22;38261;54.090;13.382;2022-08-05T01:03:29;22.90;99.90
52321;DHT22;38261;54.090;13.382;2022-08-05T01:04:55;22.90;99.90
52321;DHT22;38261;54.090;13.382;2022-08-05T01:06:17;22.90;99.90
52321;DHT22;38261;54.090;13.382;2022-08-05T01:07:39;22.90;99.90
52321;DHT22;38261;54.090;13.382;2022-08-05T01:09:23;22.90;99.90
52321;DHT22;38261;54.090;13.382;2022-08-05T01:10:53;22.90;99.90
52321;DHT22;38261;54.090;13.382;2022-08-05T01:12:19;22.90;99.90
52321;DHT22;38261;54.090;13.382;2022-08-05T01:13:59;22.90;99.90
52321;DHT22;38261;54.090;13.382;2022-08-05T01:15:31;22.90;99.90
52321;DHT22;38261;54.090;13.382;2022-08-05T01:17:04;22.90;99.90
52321;DHT22;38261;54.090;13.382;2022-08-05T01:18:32;22.90;99.90
52321;DHT22;38261;54.090;13.382;2022-08-05T01:27:12;22.90;99.90
52321;DHT22;38261;54.090;13.382;2022-08-05T01:28:57;23.00;99.90
52321;DHT22;38261;54.090;13.382;2022-08-05T01:30:28;23.00;99.90
52321;DHT22;38261;54.090;13.382;2022-08-05T01:32:01;23.00;99.90
52321;DHT22;38261;54.090;13.382;2022-08-05T01:33:32;23.00;99.90
52321;DHT22;38261;54.090;13.382;2022-08-05T01:34:59;23.00;99.90
52321;DHT22;38261;54.090;13.382;2022-08-05T01:36:28;23.00;99.90
52321;DHT22;38261;54.090;13.382;2022-08-05T01:37:51;23.00;99.90
52321;DHT22;38261;54.090;13.382;2022-08-05T01:39:16;23.00;99.90
52321;DHT22;38261;54.090;13.382;2022-08-05T01:40:59;23.00;99.90
52321;DHT22;38261;54.090;13.382;2022-08-05T01:42:24;23.00;99.90
52321;DHT22;38261;54.090;13.382;2022-08-05T01:43:49;23.00;99.90
52321;DHT22;38261;54.090;13.382;2022-08-05T01:45:13;23.00;99.90
52321;DHT22;38261;54.090;13.382;2022-08-05T01:46:38;23.00;99.90
52321;DHT22;38261;54.090;13.382;2022-08-05T01:48:07;22.90;99.90
52321;DHT22;38261;54.090;13.382;2022-08-05T01:49:32;22.90;99.90
52321;DHT22;38261;54.090;13.382;2022-08-05T01:51:17;22.90;99.90
52321;DHT22;38261;54.090;13.382;2022-08-05T01:52:41;22.90;99.90
52321;DHT22;38261;54.090;13.382;2022-08-05T01:54:06;22.90;99.90
52321;DHT22;38261;54.090;13.382;2022-08-05T01:55:32;22.90;99.90
52321;DHT22;38261;54.090;13.382;2022-08-05T01:56:58;22.90;99.90
52321;DHT22;38261;54.090;13.382;2022-08-05T01:58:42;22.90;99.90
52321;DHT22;38261;54.090;13.382;2022-08-05T02:00:07;22.90;99.90
52321;DHT22;38261;54.090;13.382;2022-08-05T02:01:33;22.90;99.90
52321;DHT22;38261;54.090;13.382;2022-08-05T02:03:19;22.80;99.90
52321;DHT22;38261;54.090;13.382;2022-08-05T02:04:57;22.80;99.90
52321;DHT22;38261;54.090;13.382;2022-08-05T02:06:19;22.80;99.90
52321;DHT22;38261;54.090;13.382;2022-08-05T02:07:59;22.80;99.90
52321;DHT22;38261;54.090;13.382;2022-08-05T02:09:23;22.80;99.90
52321;DHT22;38261;54.090;13.382;2022-08-05T02:10:51;22.80;99.90
52321;DHT22;38261;54.090;13.382;2022-08-05T02:12:32;22.80;99.90
52321;DHT22;38261;54.090;13.382;2022-08-05T02:14:11;22.80;99.90
52321;DHT22;38261;54.090;13.382;2022-08-05T02:15:44;22.80;99.90
52321;DHT22;38261;54.090;13.382;2022-08-05T02:17:14;22.80;99.90
52321;DHT22;38261;54.090;13.382;2022-08-05T02:20:53;22.70;99.90
52321;DHT22;38261;54.090;13.382;2022-08-05T02:22:25;22.70;99.90
52321;DHT22;38261;54.090;13.382;2022-08-05T02:23:52;22.70;99.90
52321;DHT22;38261;54.090;13.382;2022-08-05T02:25:18;22.70;99.90
52321;DHT22;38261;54.090;13.382;2022-08-05T02:26:47;22.70;99.90
52321;DHT22;38261;54.090;13.382;2022-08-05T02:28:27;22.70;99.90
52321;DHT22;38261;54.090;13.382;2022-08-05T02:29:56;22.70;99.90
52321;DHT22;38261;54.090;13.382;2022-08-05T02:31:26;22.70;99.90
52321;DHT22;38261;54.090;13.382;2022-08-05T02:32:57;22.70;99.90
52321;DHT22;38261;54.090;13.382;2022-08-05T02:34:20;22.60;99.90
52321;DHT22;38261;54.090;13.382;2022-08-05T02:35:44;22.60;99.90
52321;DHT22;38261;54.090;13.382;2022-08-05T02:37:20;22.70;99.90
52321;DHT22;38261;54.090;13.382;2022-08-05T02:38:45;22.60;99.90
52321;DHT22;38261;54.090;13.382;2022-08-05T02:40:15;22.60;99.90
52321;DHT22;38261;54.090;13.382;2022-08-05T02:41:38;22.60;99.90
52321;DHT22;38261;54.090;13.382;2022-08-05T02:43:23;22.60;99.90
52321;DHT22;38261;54.090;13.382;2022-08-05T02:44:46;22.60;99.90
52321;DHT22;38261;54.090;13.382;2022-08-05T02:46:15;22.60;99.90
52321;DHT22;38261;54.090;13.382;2022-08-05T02:47:50;22.50;99.90
52321;DHT22;38261;54.090;13.382;2022-08-05T02:49:35;22.50;99.90
52321;DHT22;38261;54.090;13.382;2022-08-05T02:51:02;22.50;99.90
52321;DHT22;38261;54.090;13.382;2022-08-05T02:52:24;22.50;99.90
52321;DHT22;38261;54.090;13.382;2022-08-05T02:53:52;22.50;99.90
52321;DHT22;38261;54.090;13.382;2022-08-05T02:55:16;22.50;99.90
52321;DHT22;38261;54.090;13.382;2022-08-05T02:56:59;22.50;99.90
52321;DHT22;38261;54.090;13.382;2022-08-05T02:58:22;22.50;99.90
52321;DHT22;38261;54.090;13.382;2022-08-05T02:59:49;22.50;99.90
52321;DHT22;38261;54.090;13.382;2022-08-05T03:01:16;22.50;99.90
52321;DHT22;38261;54.090;13.382;2022-08-05T03:02:41;22.50;99.90
52321;DHT22;38261;54.090;13.382;2022-08-05T03:04:07;22.50;99.90
52321;DHT22;38261;54.090;13.382;2022-08-05T03:05:35;22.50;99.90
52321;DHT22;38261;54.090;13.382;2022-08-05T03:07:18;22.40;99.90
52321;DHT22;38261;54.090;13.382;2022-08-05T03:09:02;22.40;99.90
52321;DHT22;38261;54.090;13.382;2022-08-05T03:10:24;22.40;99.90
52321;DHT22;38261;54.090;13.382;2022-08-05T03:13:46;22.40;99.90
52321;DHT22;38261;54.090;13.382;2022-08-05T03:15:23;22.40;99.90
52321;DHT22;38261;54.090;13.382;2022-08-05T03:16:46;22.40;99.90
52321;DHT22;38261;54.090;13.382;2022-08-05T03:18:09;22.30;99.90
52321;DHT22;38261;54.090;13.382;2022-08-05T03:19:31;22.30;99.90
52321;DHT22;38261;54.090;13.382;2022-08-05T03:20:55;22.30;99.90
52321;DHT22;38261;54.090;13.382;2022-08-05T03:22:19;22.30;99.90
52321;DHT22;38261;54.090;13.382;2022-08-05T03:23:53;22.20;99.90
52321;DHT22;38261;54.090;13.382;2022-08-05T03:25:18;22.20;99.90
52321;DHT22;38261;54.090;13.382;2022-08-05T03:27:01;22.20;99.90
52321;DHT22;38261;54.090;13.382;2022-08-05T03:28:23;22.20;99.90
52321;DHT22;38261;54.090;13.382;2022-08-05T03:29:46;22.10;99.90
52321;DHT22;38261;54.090;13.382;2022-08-05T03:31:29;22.10;99.90
52321;DHT22;38261;54.090;13.382;2022-08-05T03:33:12;22.10;99.90
52321;DHT22;38261;54.090;13.382;2022-08-05T03:34:36;22.10;99.90
52321;DHT22;38261;54.090;13.382;2022-08-05T03:36:00;22.10;99.90
52321;DHT22;38261;54.090;13.382;2022-08-05T03:37:27;22.00;99.90
52321;DHT22;38261;54.090;13.382;2022-08-05T03:39:06;22.00;99.90
52321;DHT22;38261;54.090;13.382;2022-08-05T03:40:28;22.00;99.90
52321;DHT22;38261;54.090;13.382;2022-08-05T03:41:54;22.00;99.90
52321;DHT22;38261;54.090;13.382;2022-08-05T03:43:17;22.00;99.90
52321;DHT22;38261;54.090;13.382;2022-08-05T03:45:00;22.00;99.90
52321;DHT22;38261;54.090;13.382;2022-08-05T03:46:42;22.00;99.90
52321;DHT22;38261;54.090;13.382;2022-08-05T03:48:07;22.00;99.90
52321;DHT22;38261;54.090;13.382;2022-08-05T03:49:29;22.00;99.90
52321;DHT22;38261;54.090;13.382;2022-08-05T03:51:27;22.00;99.90
52321;DHT22;38261;54.090;13.382;2022-08-05T03:53:15;22.00;99.90
52321;DHT22;38261;54.090;13.382;2022-08-05T03:55:02;22.00;99.90
52321;DHT22;38261;54.090;13.382;2022-08-05T03:56:46;22.00;99.90
52321;DHT22;38261;54.090;13.382;2022-08-05T03:58:15;22.00;99.90
52321;DHT22;38261;54.090;13.382;2022-08-05T03:59:45;22.00;99.90
52321;DHT22;38261;54.090;13.382;2022-08-05T04:01:18;22.00;99.90
52321;DHT22;38261;54.090;13.382;2022-08-05T04:02:45;22.00;99.90
52321;DHT22;38261;54.090;13.382;2022-08-05T04:04:20;21.90;99.90
52321;DHT22;38261;54.090;13.382;2022-08-05T04:05:47;22.00;99.90
52321;DHT22;38261;54.090;13.382;2022-08-05T04:07:10;22.00;99.90
52321;DHT22;38261;54.090;13.382;2022-08-05T04:08:34;22.00;99.90
52321;DHT22;38261;54.090;13.382;2022-08-05T04:09:58;21.90;99.90
52321;DHT22;38261;54.090;13.382;2022-08-05T04:11:24;21.90;99.90
52321;DHT22;38261;54.090;13.382;2022-08-05T04:13:06;21.80;99.90
52321;DHT22;38261;54.090;13.382;2022-08-05T04:14:30;21.70;99.90
52321;DHT22;38261;54.090;13.382;2022-08-05T04:15:52;21.70;99.90
52321;DHT22;38261;54.090;13.382;2022-08-05T04:17:26;21.70;99.90
52321;DHT22;38261;54.090;13.382;2022-08-05T04:19:11;21.60;99.90
52321;DHT22;38261;54.090;13.382;2022-08-05T04:20:34;21.60;99.90
52321;DHT22;38261;54.090;13.382;2022-08-05T04:21:56;21.60;99.90
52321;DHT22;38261;54.090;13.382;2022-08-05T04:23:33;21.60;99.90
52321;DHT22;38261;54.090;13.382;2022-08-05T04:25:17;21.60;99.90
52321;DHT22;38261;54.090;13.382;2022-08-05T04:26:45;21.60;99.90
52321;DHT22;38261;54.090;13.382;2022-08-05T04:28:07;21.50;99.90
52321;DHT22;38261;54.090;13.382;2022-08-05T04:29:34;21.40;99.90
52321;DHT22;38261;54.090;13.382;2022-08-05T04:30:58;21.40;99.90
52321;DHT22;38261;54.090;13.382;2022-08-05T04:32:29;21.40;99.90
52321;DHT22;38261;54.090;13.382;2022-08-05T04:33:54;21.30;99.90
52321;DHT22;38261;54.090;13.382;2022-08-05T04:35:36;21.30;99.90
52321;DHT22;38261;54.090;13.382;2022-08-05T04:37:18;21.30;99.90
52321;DHT22;38261;54.090;13.382;2022-08-05T04:38:44;21.30;99.90
52321;DHT22;38261;54.090;13.382;2022-08-05T04:40:11;21.30;99.90
52321;DHT22;38261;54.090;13.382;2022-08-05T04:41:40;21.30;99.90
52321;DHT22;38261;54.090;13.382;2022-08-05T04:43:03;21.30;99.90
52321;DHT22;38261;54.090;13.382;2022-08-05T04:44:25;21.30;99.90
52321;DHT22;38261;54.090;13.382;2022-08-05T04:45:51;21.30;99.90
52321;DHT22;38261;54.090;13.382;2022-08-05T04:47:16;21.30;99.90
52321;DHT22;38261;54.090;13.382;2022-08-05T04:48:41;21.30;99.90
52321;DHT22;38261;54.090;13.382;2022-08-05T04:50:07;21.30;99.90
52321;DHT22;38261;54.090;13.382;2022-08-05T04:51:32;21.30;99.90
52321;DHT22;38261;54.090;13.382;2022-08-05T04:52:55;21.30;99.90
52321;DHT22;38261;54.090;13.382;2022-08-05T04:54:17;21.30;99.90
52321;DHT22;38261;54.090;13.382;2022-08-05T04:55:41;21.40;99.90
52321;DHT22;38261;54.090;13.382;2022-08-05T04:57:24;21.40;99.90
52321;DHT22;38261;54.090;13.382;2022-08-05T04:58:50;21.40;99.90
52321;DHT22;38261;54.090;13.382;2022-08-05T05:00:13;21.40;99.90
52321;DHT22;38261;54.090;13.382;2022-08-05T05:01:37;21.40;99.90
52321;DHT22;38261;54.090;13.382;2022-08-05T05:03:19;21.40;99.90
52321;DHT22;38261;54.090;13.382;2022-08-05T05:04:41;21.40;99.90
52321;DHT22;38261;54.090;13.382;2022-08-05T05:06:10;21.50;99.90
52321;DHT22;38261;54.090;13.382;2022-08-05T05:08:00;21.50;99.90
52321;DHT22;38261;54.090;13.382;2022-08-05T05:09:23;21.50;99.90
52321;DHT22;38261;54.090;13.382;2022-08-05T05:10:46;21.60;99.90
52321;DHT22;38261;54.090;13.382;2022-08-05T05:12:17;21.60;99.90
52321;DHT22;38261;54.090;13.382;2022-08-05T05:13:40;21.50;99.90
52321;DHT22;38261;54.090;13.382;2022-08-05T05:15:05;21.50;99.90
52321;DHT22;38261;54.090;13.382;2022-08-05T05:16:31;21.50;99.90
52321;DHT22;38261;54.090;13.382;2022-08-05T05:17:54;21.50;99.90
52321;DHT22;38261;54.090;13.382;2022-08-05T05:19:18;21.50;99.90
52321;DHT22;38261;54.090;13.382;2022-08-05T05:20:48;21.50;99.90
52321;DHT22;38261;54.090;13.382;2022-08-05T05:22:11;21.60;99.90
52321;DHT22;38261;54.090;13.382;2022-08-05T05:23:45;21.60;99.90
52321;DHT22;38261;54.090;13.382;2022-08-05T05:25:27;21.60;99.90
52321;DHT22;38261;54.090;13.382;2022-08-05T05:27:02;21.60;99.90
52321;DHT22;38261;54.090;13.382;2022-08-05T05:28:24;21.60;99.90
52321;DHT22;38261;54.090;13.382;2022-08-05T05:29:50;21.60;99.90
52321;DHT22;38261;54.090;13.382;2022-08-05T05:31:26;21.50;99.90
52321;DHT22;38261;54.090;13.382;2022-08-05T05:32:51;21.50;99.90
52321;DHT22;38261;54.090;13.382;2022-08-05T05:34:14;21.50;99.90
52321;DHT22;38261;54.090;13.382;2022-08-05T05:35:38;21.50;99.90
52321;DHT22;38261;54.090;13.382;2022-08-05T05:37:03;21.50;99.90
52321;DHT22;38261;54.090;13.382;2022-08-05T05:38:26;21.50;99.90
52321;DHT22;38261;54.090;13.382;2022-08-05T05:39:48;21.50;99.90
52321;DHT22;38261;54.090;13.382;2022-08-05T05:41:11;21.50;99.90
52321;DHT22;38261;54.090;13.382;2022-08-05T05:42:37;21.50;99.90
52321;DHT22;38261;54.090;13.382;2022-08-05T05:43:59;21.50;99.90
52321;DHT22;38261;54.090;13.382;2022-08-05T05:45:22;21.50;99.90
52321;DHT22;38261;54.090;13.382;2022-08-05T05:46:45;21.50;99.90
52321;DHT22;38261;54.090;13.382;2022-08-05T05:48:11;21.40;99.90
52321;DHT22;38261;54.090;13.382;2022-08-05T05:49:37;21.40;99.90
52321;DHT22;38261;54.090;13.382;2022-08-05T05:51:00;21.40;99.90
52321;DHT22;38261;54.090;13.382;2022-08-05T05:52:36;21.40;99.90
52321;DHT22;38261;54.090;13.382;2022-08-05T05:54:01;21.40;99.90
52321;DHT22;38261;54.090;13.382;2022-08-05T05:55:23;21.30;99.90
52321;DHT22;38261;54.090;13.382;2022-08-05T05:57:05;21.30;99.90
52321;DHT22;38261;54.090;13.382;2022-08-05T05:58:34;21.30;99.90
52321;DHT22;38261;54.090;13.382;2022-08-05T06:00:01;21.30;99.90
52321;DHT22;38261;54.090;13.382;2022-08-05T06:01:25;21.30;99.90
52321;DHT22;38261;54.090;13.382;2022-08-05T06:02:59;21.40;99.90
52321;DHT22;38261;54.090;13.382;2022-08-05T06:04:23;21.40;99.90
52321;DHT22;38261;54.090;13.382;2022-08-05T06:05:45;21.40;99.90
52321;DHT22;38261;54.090;13.382;2022-08-05T06:07:15;21.40;99.90
52321;DHT22;38261;54.090;13.382;2022-08-05T06:08:37;21.40;99.90
52321;DHT22;38261;54.090;13.382;2022-08-05T06:10:00;21.30;99.90
52321;DHT22;38261;54.090;13.382;2022-08-05T06:11:25;21.40;99.90
52321;DHT22;38261;54.090;13.382;2022-08-05T06:12:49;21.40;99.90
52321;DHT22;38261;54.090;13.382;2022-08-05T06:14:12;21.30;99.90
52321;DHT22;38261;54.090;13.382;2022-08-05T06:15:34;21.30;99.90
52321;DHT22;38261;54.090;13.382;2022-08-05T06:17:16;21.30;99.90
52321;DHT22;38261;54.090;13.382;2022-08-05T06:18:43;21.30;99.90
52321;DHT22;38261;54.090;13.382;2022-08-05T06:20:07;21.20;99.90
52321;DHT22;38261;54.090;13.382;2022-08-05T06:21:42;21.20;99.90
52321;DHT22;38261;54.090;13.382;2022-08-05T06:23:10;21.10;99.90
52321;DHT22;38261;54.090;13.382;2022-08-05T06:24:33;21.10;99.90
52321;DHT22;38261;54.090;13.382;2022-08-05T06:25:56;21.10;99.90
52321;DHT22;38261;54.090;13.382;2022-08-05T06:27:38;21.20;99.90
52321;DHT22;38261;54.090;13.382;2022-08-05T06:29:20;21.20;99.90
52321;DHT22;38261;54.090;13.382;2022-08-05T06:31:03;21.20;99.90
52321;DHT22;38261;54.090;13.382;2022-08-05T06:32:38;21.20;99.90
52321;DHT22;38261;54.090;13.382;2022-08-05T06:34:01;21.20;99.90
52321;DHT22;38261;54.090;13.382;2022-08-05T06:35:29;21.20;99.90
52321;DHT22;38261;54.090;13.382;2022-08-05T06:37:12;21.20;99.90
52321;DHT22;38261;54.090;13.382;2022-08-05T06:38:35;21.30;99.90
52321;DHT22;38261;54.090;13.382;2022-08-05T06:39:58;21.30;99.90
52321;DHT22;38261;54.090;13.382;2022-08-05T06:41:23;21.20;99.90
52321;DHT22;38261;54.090;13.382;2022-08-05T06:42:45;21.30;99.90
52321;DHT22;38261;54.090;13.382;2022-08-05T06:44:13;21.30;99.90
52321;DHT22;38261;54.090;13.382;2022-08-05T06:45:36;21.30;99.90
52321;DHT22;38261;54.090;13.382;2022-08-05T06:47:18;21.30;99.90
52321;DHT22;38261;54.090;13.382;2022-08-05T06:49:00;21.20;99.90
52321;DHT22;38261;54.090;13.382;2022-08-05T06:50:28;21.20;99.90
52321;DHT22;38261;54.090;13.382;2022-08-05T06:51:51;21.20;99.90
52321;DHT22;38261;54.090;13.382;2022-08-05T06:53:13;21.20;99.90
52321;DHT22;38261;54.090;13.382;2022-08-05T06:54:49;21.20;99.90
52321;DHT22;38261;54.090;13.382;2022-08-05T06:56:14;21.20;99.90
52321;DHT22;38261;54.090;13.382;2022-08-05T06:57:47;21.20;99.90
52321;DHT22;38261;54.090;13.382;2022-08-05T06:59:29;21.20;99.90
52321;DHT22;38261;54.090;13.382;2022-08-05T07:01:06;21.30;99.90
52321;DHT22;38261;54.090;13.382;2022-08-05T07:02:29;21.30;99.90
52321;DHT22;38261;54.090;13.382;2022-08-05T07:03:51;21.30;99.90
52321;DHT22;38261;54.090;13.382;2022-08-05T07:05:14;21.20;99.90
52321;DHT22;38261;54.090;13.382;2022-08-05T07:06:40;21.20;99.90
52321;DHT22;38261;54.090;13.382;2022-08-05T07:08:02;21.30;99.90
52321;DHT22;38261;54.090;13.382;2022-08-05T07:09:25;21.30;99.90
52321;DHT22;38261;54.090;13.382;2022-08-05T07:10:53;21.30;99.90
52321;DHT22;38261;54.090;13.382;2022-08-05T07:12:15;21.30;99.90
52321;DHT22;38261;54.090;13.382;2022-08-05T07:13:57;21.40;99.90
52321;DHT22;38261;54.090;13.382;2022-08-05T07:15:51;21.30;99.90
52321;DHT22;38261;54.090;13.382;2022-08-05T07:17:51;21.30;99.90
52321;DHT22;38261;54.090;13.382;2022-08-05T07:19:23;21.30;99.90
52321;DHT22;38261;54.090;13.382;2022-08-05T07:21:06;21.30;99.90
52321;DHT22;38261;54.090;13.382;2022-08-05T07:22:29;21.40;99.90
52321;DHT22;38261;54.090;13.382;2022-08-05T07:23:51;21.40;99.90
52321;DHT22;38261;54.090;13.382;2022-08-05T07:25:14;21.40;99.90
52321;DHT22;38261;54.090;13.382;2022-08-05T07:26:56;21.40;99.90
52321;DHT22;38261;54.090;13.382;2022-08-05T07:28:18;21.50;99.90
52321;DHT22;38261;54.090;13.382;2022-08-05T07:29:40;21.50;99.90
52321;DHT22;38261;54.090;13.382;2022-08-05T07:31:22;21.50;99.90
52321;DHT22;38261;54.090;13.382;2022-08-05T07:33:06;21.50;99.90
52321;DHT22;38261;54.090;13.382;2022-08-05T07:34:31;21.60;99.90
52321;DHT22;38261;54.090;13.382;2022-08-05T07:35:53;21.50;99.90
52321;DHT22;38261;54.090;13.382;2022-08-05T07:37:35;21.50;99.90
52321;DHT22;38261;54.090;13.382;2022-08-05T07:39:04;21.50;99.90
52321;DHT22;38261;54.090;13.382;2022-08-05T07:40:27;21.50;99.90
52321;DHT22;38261;54.090;13.382;2022-08-05T07:41:54;21.50;99.90
52321;DHT22;38261;54.090;13.382;2022-08-05T07:43:35;21.50;99.90
52321;DHT22;38261;54.090;13.382;2022-08-05T07:44:58;21.50;99.90
52321;DHT22;38261;54.090;13.382;2022-08-05T07:46:21;21.60;99.90
52321;DHT22;38261;54.090;13.382;2022-08-05T07:47:46;21.50;99.90
52321;DHT22;38261;54.090;13.382;2022-08-05T07:49:08;21.50;99.90
52321;DHT22;38261;54.090;13.382;2022-08-05T07:50:30;21.60;99.90
52321;DHT22;38261;54.090;13.382;2022-08-05T07:51:54;21.60;99.90
52321;DHT22;38261;54.090;13.382;2022-08-05T07:53:16;21.60;99.90
52321;DHT22;38261;54.090;13.382;2022-08-05T07:54:40;21.60;99.90
52321;DHT22;38261;54.090;13.382;2022-08-05T07:56:10;21.70;99.90
52321;DHT22;38261;54.090;13.382;2022-08-05T07:57:52;21.70;99.90
52321;DHT22;38261;54.090;13.382;2022-08-05T07:59:23;21.80;99.90
52321;DHT22;38261;54.090;13.382;2022-08-05T08:01:01;21.90;99.90
52321;DHT22;38261;54.090;13.382;2022-08-05T08:02:33;21.90;99.90
52321;DHT22;38261;54.090;13.382;2022-08-05T08:04:15;22.00;99.90
52321;DHT22;38261;54.090;13.382;2022-08-05T08:05:45;22.00;99.90
52321;DHT22;38261;54.090;13.382;2022-08-05T08:07:11;22.10;99.90
52321;DHT22;38261;54.090;13.382;2022-08-05T08:08:33;22.20;99.90
52321;DHT22;38261;54.090;13.382;2022-08-05T08:09:55;22.20;99.90
52321;DHT22;38261;54.090;13.382;2022-08-05T08:11:18;22.20;99.90
52321;DHT22;38261;54.090;13.382;2022-08-05T08:12:49;22.20;99.90
52321;DHT22;38261;54.090;13.382;2022-08-05T08:14:11;22.20;99.90
52321;DHT22;38261;54.090;13.382;2022-08-05T08:15:40;22.20;99.90
52321;DHT22;38261;54.090;13.382;2022-08-05T08:17:22;22.20;99.90
52321;DHT22;38261;54.090;13.382;2022-08-05T08:18:48;22.20;99.90
52321;DHT22;38261;54.090;13.382;2022-08-05T08:20:11;22.20;99.90
52321;DHT22;38261;54.090;13.382;2022-08-05T08:21:53;22.20;99.90
52321;DHT22;38261;54.090;13.382;2022-08-05T08:23:16;22.20;99.90
52321;DHT22;38261;54.090;13.382;2022-08-05T08:24:59;22.20;99.90
52321;DHT22;38261;54.090;13.382;2022-08-05T08:26:23;22.30;99.90
52321;DHT22;38261;54.090;13.382;2022-08-05T08:27:50;22.20;99.90
52321;DHT22;38261;54.090;13.382;2022-08-05T08:29:13;22.20;99.90
52321;DHT22;38261;54.090;13.382;2022-08-05T08:30:55;22.10;99.90
52321;DHT22;38261;54.090;13.382;2022-08-05T08:32:18;22.10;99.90
52321;DHT22;38261;54.090;13.382;2022-08-05T08:33:49;22.00;99.90
52321;DHT22;38261;54.090;13.382;2022-08-05T08:35:14;22.00;99.90
52321;DHT22;38261;54.090;13.382;2022-08-05T08:36:36;22.00;99.90
52321;DHT22;38261;54.090;13.382;2022-08-05T08:38:13;22.10;99.90
52321;DHT22;38261;54.090;13.382;2022-08-05T08:39:52;22.10;99.90
52321;DHT22;38261;54.090;13.382;2022-08-05T08:41:15;22.10;99.90
52321;DHT22;38261;54.090;13.382;2022-08-05T08:42:39;22.10;99.90
52321;DHT22;38261;54.090;13.382;2022-08-05T08:44:17;22.20;99.90
52321;DHT22;38261;54.090;13.382;2022-08-05T08:46:00;22.20;99.90
52321;DHT22;38261;54.090;13.382;2022-08-05T08:47:26;22.30;99.90
52321;DHT22;38261;54.090;13.382;2022-08-05T08:49:13;22.40;99.90
52321;DHT22;38261;54.090;13.382;2022-08-05T08:50:55;22.50;99.90
52321;DHT22;38261;54.090;13.382;2022-08-05T08:52:38;22.50;99.90
52321;DHT22;38261;54.090;13.382;2022-08-05T08:54:01;22.50;99.90
52321;DHT22;38261;54.090;13.382;2022-08-05T08:55:23;22.50;99.90
52321;DHT22;38261;54.090;13.382;2022-08-05T08:57:06;22.40;99.90
52321;DHT22;38261;54.090;13.382;2022-08-05T08:58:34;22.50;99.90
52321;DHT22;38261;54.090;13.382;2022-08-05T09:00:06;22.50;99.90
52321;DHT22;38261;54.090;13.382;2022-08-05T09:01:31;22.60;99.90
52321;DHT22;38261;54.090;13.382;2022-08-05T09:02:53;22.70;99.90
52321;DHT22;38261;54.090;13.382;2022-08-05T09:04:16;22.80;99.90
52321;DHT22;38261;54.090;13.382;2022-08-05T09:05:38;22.90;99.90
52321;DHT22;38261;54.090;13.382;2022-08-05T09:07:20;23.00;99.90
52321;DHT22;38261;54.090;13.382;2022-08-05T09:09:00;23.10;99.90
52321;DHT22;38261;54.090;13.382;2022-08-05T09:10:23;23.20;99.90
52321;DHT22;38261;54.090;13.382;2022-08-05T09:11:48;23.20;99.90
52321;DHT22;38261;54.090;13.382;2022-08-05T09:13:16;23.20;99.90
52321;DHT22;38261;54.090;13.382;2022-08-05T09:14:38;23.30;99.90
52321;DHT22;38261;54.090;13.382;2022-08-05T09:16:21;23.20;99.90
52321;DHT22;38261;54.090;13.382;2022-08-05T09:17:48;23.30;99.90
52321;DHT22;38261;54.090;13.382;2022-08-05T09:19:14;23.30;99.90
52321;DHT22;38261;54.090;13.382;2022-08-05T09:20:37;23.40;99.90
52321;DHT22;38261;54.090;13.382;2022-08-05T09:21:59;23.60;99.90
52321;DHT22;38261;54.090;13.382;2022-08-05T09:23:44;23.70;99.90
52321;DHT22;38261;54.090;13.382;2022-08-05T09:25:07;23.80;99.90
52321;DHT22;38261;54.090;13.382;2022-08-05T09:26:52;23.90;99.90
52321;DHT22;38261;54.090;13.382;2022-08-05T09:28:21;24.10;99.90